Time;durP1;ratioP1;P1;durP2;ratioP2;P2;SDS_P1;SDS_P2;PMS_P1;PMS_P2;Temp;Humidity;BMP_temperature;BMP_pressure;BME280_temperature;BME280_humidity;BME280_pressure;Samples;Min_cycle;Max_cycle;Signal;HPM_P1;HPM_P2
2022/12/19 00:01:30;;;;;;;25.45;10.40;;;-1.00;99.90;;;;;;6159901;23;20001;-69
2022/12/19 00:03:59;;;;;;;25.73;11.02;;;-1.00;99.90;;;;;;6159871;23;20071;-69
2022/12/19 00:06:28;;;;;;;23.45;10.05;;;-1.00;99.90;;;;;;6160582;23;20012;-69
2022/12/19 00:08:59;;;;;;;27.80;12.27;;;-1.00;99.90;;;;;;6159901;23;20064;-69
2022/12/19 00:11:28;;;;;;;30.92;12.73;;;-1.00;99.90;;;;;;6160154;23;20044;-69
2022/12/19 00:13:56;;;;;;;27.83;12.13;;;-1.00;99.90;;;;;;6159904;23;20001;-69
2022/12/19 00:16:26;;;;;;;23.45;10.05;;;-1.00;99.90;;;;;;6160444;23;20002;-69
2022/12/19 00:18:55;;;;;;;23.33;10.68;;;-1.00;99.90;;;;;;6159695;23;20374;-70
2022/12/19 00:21:27;;;;;;;25.73;11.13;;;-1.00;99.90;;;;;;6160517;23;20240;-69
2022/12/19 00:23:55;;;;;;;29.42;11.93;;;-0.90;99.90;;;;;;6159906;23;20360;-69
2022/12/19 00:26:25;;;;;;;33.65;12.45;;;-0.90;99.90;;;;;;6158655;23;20279;-69
2022/12/19 00:28:55;;;;;;;27.40;11.00;;;-0.90;99.90;;;;;;6159922;23;20009;-69
2022/12/19 00:31:23;;;;;;;27.50;11.40;;;-0.90;99.90;;;;;;6160471;23;20299;-69
2022/12/19 00:33:51;;;;;;;26.70;12.70;;;-0.90;99.90;;;;;;6160047;23;20263;-69
2022/12/19 00:36:24;;;;;;;26.90;11.15;;;-0.90;99.90;;;;;;6160429;23;19998;-69
2022/12/19 00:38:53;;;;;;;30.15;11.80;;;-0.90;99.90;;;;;;6159930;23;20073;-69
2022/12/19 00:41:23;;;;;;;27.25;12.15;;;-0.90;99.90;;;;;;6160366;23;20013;-69
2022/12/19 00:43:55;;;;;;;29.50;11.80;;;-0.90;99.90;;;;;;6159675;23;20002;-69
2022/12/19 00:46:23;;;;;;;26.02;11.50;;;-0.90;99.90;;;;;;6159723;23;20025;-69
2022/12/19 00:48:51;;;;;;;30.88;12.65;;;-0.90;99.90;;;;;;6161383;23;20009;-69
2022/12/19 00:51:20;;;;;;;28.67;11.93;;;-0.90;99.90;;;;;;6162292;23;20001;-69
2022/12/19 00:53:49;;;;;;;27.83;12.48;;;-0.90;99.90;;;;;;6161640;23;20093;-69
2022/12/19 00:56:19;;;;;;;32.13;12.55;;;-0.90;99.90;;;;;;6161484;23;20033;-69
2022/12/19 00:58:47;;;;;;;31.95;12.45;;;-0.80;99.90;;;;;;6161724;23;20005;-69
2022/12/19 01:01:17;;;;;;;26.05;10.65;;;-0.90;99.90;;;;;;6162188;23;20047;-69
2022/12/19 01:03:45;;;;;;;29.42;11.15;;;-0.80;99.90;;;;;;6161410;23;20006;-69
2022/12/19 01:06:12;;;;;;;28.42;11.15;;;-0.80;99.90;;;;;;6160080;23;20006;-69
2022/12/19 01:08:40;;;;;;;27.20;10.50;;;-0.80;99.90;;;;;;6161533;23;20270;-69
2022/12/19 01:11:07;;;;;;;30.85;13.27;;;-0.80;99.90;;;;;;6162089;23;20001;-69
2022/12/19 01:13:36;;;;;;;26.35;11.10;;;-0.70;99.90;;;;;;6161445;23;20009;-69
2022/12/19 01:16:07;;;;;;;31.55;11.85;;;-0.70;99.90;;;;;;6162051;23;20068;-69
2022/12/19 01:18:35;;;;;;;28.50;11.63;;;-0.70;99.90;;;;;;6161486;23;20001;-69
2022/12/19 01:21:05;;;;;;;28.38;11.18;;;-0.70;99.90;;;;;;6161113;23;20104;-69
2022/12/19 01:23:33;;;;;;;34.95;14.55;;;-0.60;99.90;;;;;;6161337;23;20002;-69
2022/12/19 01:26:00;;;;;;;29.27;12.50;;;-0.60;99.90;;;;;;6160401;23;20009;-69
2022/12/19 01:28:28;;;;;;;33.78;13.45;;;-0.70;99.90;;;;;;6160015;23;20016;-69
2022/12/19 01:30:55;;;;;;;28.92;10.55;;;-0.60;99.90;;;;;;6161954;23;20073;-69
2022/12/19 01:33:23;;;;;;;30.42;13.20;;;-0.60;99.90;;;;;;6161520;23;20362;-69
2022/12/19 01:35:51;;;;;;;30.50;12.02;;;-0.60;99.90;;;;;;6161509;23;20359;-69
2022/12/19 01:38:20;;;;;;;38.22;14.40;;;-0.60;99.90;;;;;;6162023;23;20009;-69
2022/12/19 01:40:52;;;;;;;28.52;11.15;;;-0.60;99.90;;;;;;6161495;23;20012;-69
2022/12/19 01:43:20;;;;;;;30.90;11.13;;;-0.60;99.90;;;;;;6161200;23;20017;-69
2022/12/19 01:45:55;;;;;;;30.45;12.13;;;-0.60;99.90;;;;;;6161137;23;20005;-69
2022/12/19 01:48:35;;;;;;;31.10;13.25;;;-0.60;99.90;;;;;;6159715;23;20068;-69
2022/12/19 01:51:12;;;;;;;34.10;13.68;;;-0.60;99.90;;;;;;6161375;23;20001;-69
2022/12/19 01:53:56;;;;;;;34.05;13.73;;;-0.60;99.90;;;;;;6159653;23;20053;-69
2022/12/19 01:56:35;;;;;;;28.95;12.05;;;-0.60;99.90;;;;;;6161653;23;20024;-69
2022/12/19 01:59:09;;;;;;;33.38;13.13;;;-0.60;99.90;;;;;;6160691;23;20009;-69
2022/12/19 02:01:39;;;;;;;32.13;13.65;;;-0.60;99.90;;;;;;6161280;23;20001;-69
2022/12/19 02:04:07;;;;;;;32.38;11.65;;;-0.60;99.90;;;;;;6160964;23;20056;-69
2022/12/19 02:06:34;;;;;;;34.47;13.93;;;-0.60;99.90;;;;;;6161251;23;20470;-69
2022/12/19 02:09:02;;;;;;;35.83;14.75;;;-0.60;99.90;;;;;;6161662;23;20005;-69
2022/12/19 02:11:29;;;;;;;37.55;14.82;;;-0.60;99.90;;;;;;6159462;23;20005;-69
2022/12/19 02:13:57;;;;;;;37.20;14.40;;;-0.50;99.90;;;;;;6159501;23;20367;-69
2022/12/19 02:16:50;;;;;;;38.75;14.40;;;-0.50;99.90;;;;;;6161480;23;20003;-69
2022/12/19 02:19:48;;;;;;;39.40;13.35;;;-0.50;99.90;;;;;;6160548;23;20013;-69
2022/12/19 02:22:38;;;;;;;28.77;12.15;;;-0.50;99.90;;;;;;6159466;23;20085;-69
2022/12/19 02:25:30;;;;;;;42.38;15.45;;;-0.40;99.90;;;;;;6160976;23;20006;-69
2022/12/19 02:28:12;;;;;;;38.95;14.18;;;-0.40;99.90;;;;;;6161022;23;20013;-69
2022/12/19 02:30:58;;;;;;;52.22;16.98;;;-0.30;99.90;;;;;;6160683;23;20073;-69
2022/12/19 02:33:41;;;;;;;37.97;14.82;;;-0.30;99.90;;;;;;6160621;23;20025;-69
2022/12/19 02:36:28;;;;;;;39.95;17.17;;;-0.20;99.90;;;;;;6161317;23;20351;-69
2022/12/19 02:39:00;;;;;;;;;;;-0.20;99.90;;;;;;6161966;23;20025;-69
2022/12/19 02:42:06;;;;;;;42.42;14.85;;;-0.20;99.90;;;;;;6159174;23;19980;-69
2022/12/19 02:44:43;;;;;;;28.02;11.77;;;-0.20;99.90;;;;;;6042188;23;20379;-69
2022/12/19 02:47:11;;;;;;;23.48;10.05;;;-0.10;99.90;;;;;;6145903;23;20385;-69
2022/12/19 02:49:39;;;;;;;34.13;14.35;;;-0.20;99.90;;;;;;6159040;23;20092;-69
2022/12/19 02:52:20;;;;;;;42.53;15.00;;;-0.10;99.90;;;;;;6159818;23;20059;-69
2022/12/19 02:54:54;;;;;;;33.00;13.90;;;-0.10;99.90;;;;;;6161088;23;20017;-69
2022/12/19 02:57:46;;;;;;;38.92;14.55;;;-0.10;99.90;;;;;;6160591;23;20001;-69
2022/12/19 03:00:23;;;;;;;38.45;14.02;;;0.00;99.90;;;;;;6159045;23;20092;-69
2022/12/19 03:03:03;;;;;;;44.90;14.73;;;0.00;99.90;;;;;;6160242;23;20001;-69
2022/12/19 03:05:46;;;;;;;31.52;13.65;;;0.10;99.90;;;;;;6161005;23;20002;-69
2022/12/19 03:08:28;;;;;;;29.38;11.65;;;0.10;99.90;;;;;;6158854;23;20296;-69
2022/12/19 03:11:10;;;;;;;34.63;14.50;;;0.10;99.90;;;;;;6160620;23;20002;-69
2022/12/19 03:14:06;;;;;;;38.47;15.30;;;0.20;99.90;;;;;;6160324;23;20002;-69
2022/12/19 03:16:37;;;;;;;27.92;12.82;;;0.20;99.90;;;;;;6160945;23;20052;-69
2022/12/19 03:19:09;;;;;;;33.15;13.13;;;0.20;99.90;;;;;;6160737;23;20006;-69
2022/12/19 03:21:48;;;;;;;37.95;12.80;;;0.20;99.90;;;;;;6160570;23;20271;-69
2022/12/19 03:24:17;;;;;;;27.08;12.25;;;0.20;99.90;;;;;;6160339;23;20005;-69
2022/12/19 03:26:57;;;;;;;25.00;10.55;;;0.30;99.90;;;;;;6160855;23;20395;-69
2022/12/19 03:29:32;;;;;;;24.80;11.57;;;0.30;99.90;;;;;;6160090;23;20005;-69
2022/12/19 03:32:04;;;;;;;25.48;10.80;;;0.30;99.90;;;;;;6158772;23;20013;-69
2022/12/19 03:34:44;;;;;;;21.85;10.05;;;0.30;99.90;;;;;;6160046;23;20374;-69
2022/12/19 03:37:17;;;;;;;21.73;10.55;;;0.30;99.90;;;;;;6160744;23;19998;-69
2022/12/19 03:39:49;;;;;;;23.02;10.02;;;0.30;99.90;;;;;;6160074;23;20001;-69
2022/12/19 03:45:05;;;;;;;31.90;12.80;;;0.30;99.90;;;;;;6160324;23;20282;-69
2022/12/19 03:47:33;;;;;;;23.25;8.63;;;0.30;99.90;;;;;;6160814;23;20355;-69
2022/12/19 03:50:01;;;;;;;21.80;10.57;;;0.30;99.90;;;;;;6160577;23;20024;-69
2022/12/19 03:52:43;;;;;;;21.42;9.15;;;0.40;99.90;;;;;;6160007;23;20080;-69
2022/12/19 03:55:28;;;;;;;30.60;11.35;;;0.40;99.90;;;;;;6160647;23;20069;-69
2022/12/19 03:58:34;;;;;;;21.88;10.50;;;0.40;99.90;;;;;;6160842;23;20028;-69
2022/12/19 04:01:04;;;;;;;27.85;10.98;;;0.40;99.90;;;;;;6141778;23;20002;-69
2022/12/19 04:03:32;;;;;;;33.03;12.80;;;0.40;99.90;;;;;;6160155;23;20001;-69
2022/12/19 04:06:01;;;;;;;31.83;12.82;;;0.40;99.90;;;;;;6159902;23;20002;-69
2022/12/19 04:08:30;;;;;;;33.17;13.23;;;0.40;99.90;;;;;;6160387;23;20099;-69
2022/12/19 04:11:10;;;;;;;34.20;14.18;;;0.40;99.90;;;;;;6159926;23;20001;-69
2022/12/19 04:13:50;;;;;;;33.97;11.50;;;0.40;99.90;;;;;;6160540;23;20002;-69
2022/12/19 04:16:52;;;;;;;21.55;10.40;;;0.50;99.90;;;;;;6159913;23;20383;-69
2022/12/19 04:19:52;;;;;;;35.05;13.30;;;0.50;99.90;;;;;;6158323;23;20077;-69
2022/12/19 04:22:35;;;;;;;28.98;11.32;;;0.50;99.90;;;;;;6146034;23;20020;-69
2022/12/19 04:25:06;;;;;;;36.53;13.73;;;0.50;99.90;;;;;;6162496;23;20240;-69
2022/12/19 04:27:36;;;;;;;35.03;15.02;;;0.50;99.90;;;;;;6162142;23;20322;-69
2022/12/19 04:30:05;;;;;;;51.10;17.85;;;0.50;99.90;;;;;;6161769;23;20371;-69
2022/12/19 04:32:35;;;;;;;38.78;13.95;;;0.50;99.90;;;;;;6162268;23;20002;-69
2022/12/19 04:35:03;;;;;;;37.20;15.98;;;0.50;99.90;;;;;;6161718;23;20013;-69
2022/12/19 04:37:31;;;;;;;34.90;13.65;;;0.50;99.90;;;;;;6161715;23;20363;-69
2022/12/19 04:39:59;;;;;;;21.83;9.90;;;0.50;99.90;;;;;;6161629;23;20016;-69
2022/12/19 04:42:27;;;;;;;30.60;13.13;;;0.50;99.90;;;;;;6160516;23;20009;-69
2022/12/19 04:44:54;;;;;;;24.80;10.30;;;0.60;99.90;;;;;;6162633;23;20255;-68
2022/12/19 04:47:22;;;;;;;29.85;10.80;;;0.60;99.90;;;;;;6162201;23;20001;-69
2022/12/19 04:49:49;;;;;;;35.10;14.55;;;0.60;99.90;;;;;;6162202;23;20009;-69
2022/12/19 04:52:17;;;;;;;28.88;13.77;;;0.60;99.90;;;;;;6162481;23;20413;-69
2022/12/19 04:54:44;;;;;;;32.45;15.07;;;0.60;99.90;;;;;;6161570;23;20057;-69
2022/12/19 04:57:11;;;;;;;26.92;12.15;;;0.60;99.90;;;;;;6161563;23;20025;-69
2022/12/19 04:59:39;;;;;;;30.98;13.00;;;0.60;99.90;;;;;;6160162;23;20084;-69
2022/12/19 05:02:06;;;;;;;33.50;13.30;;;0.60;99.90;;;;;;6160368;23;20013;-69
2022/12/19 05:04:34;;;;;;;31.52;13.85;;;0.60;99.90;;;;;;6162065;23;20012;-69
2022/12/19 05:07:01;;;;;;;34.33;12.57;;;0.70;99.90;;;;;;6161450;23;20002;-69
2022/12/19 05:09:29;;;;;;;32.38;14.27;;;0.70;99.90;;;;;;6162061;23;20085;-69
2022/12/19 05:11:59;;;;;;;23.63;10.45;;;0.60;99.90;;;;;;6160090;23;20010;-69
2022/12/19 05:14:27;;;;;;;34.60;13.63;;;0.70;99.90;;;;;;6160045;23;20009;-69
2022/12/19 05:16:55;;;;;;;27.30;10.35;;;0.70;99.90;;;;;;6161343;23;20084;-69
2022/12/19 05:19:22;;;;;;;36.25;14.45;;;0.70;99.90;;;;;;6161104;23;20017;-69
2022/12/19 05:21:50;;;;;;;36.47;13.57;;;0.70;99.90;;;;;;6159934;23;20013;-69
2022/12/19 05:24:17;;;;;;;22.27;9.35;;;0.70;99.90;;;;;;6161781;23;20001;-69
2022/12/19 05:26:45;;;;;;;25.45;11.13;;;0.70;99.90;;;;;;6161278;23;20084;-69
2022/12/19 05:29:12;;;;;;;31.85;13.55;;;0.80;99.90;;;;;;6159817;23;20008;-69
2022/12/19 05:31:40;;;;;;;27.88;11.43;;;0.80;99.90;;;;;;6161220;23;20013;-69
2022/12/19 05:34:07;;;;;;;24.55;10.85;;;0.80;99.90;;;;;;6161007;23;20002;-69
2022/12/19 05:36:35;;;;;;;22.30;10.23;;;0.80;99.90;;;;;;6161858;23;20024;-69
2022/12/19 05:39:03;;;;;;;30.50;12.63;;;0.80;99.90;;;;;;6161425;23;20016;-69
2022/12/19 05:41:30;;;;;;;33.42;14.32;;;0.80;99.90;;;;;;6161129;23;20005;-69
2022/12/19 05:43:57;;;;;;;30.13;13.18;;;0.80;99.90;;;;;;6161152;23;20005;-69
2022/12/19 05:46:26;;;;;;;23.67;10.63;;;0.80;99.90;;;;;;6161065;23;20009;-69
2022/12/19 05:48:54;;;;;;;31.77;13.88;;;0.80;99.90;;;;;;6161040;23;20012;-69
2022/12/19 05:51:21;;;;;;;27.83;11.25;;;0.80;99.90;;;;;;6161321;23;20307;-69
2022/12/19 05:53:49;;;;;;;34.78;12.65;;;0.80;99.90;;;;;;6159836;23;20009;-69
2022/12/19 05:56:19;;;;;;;28.35;12.73;;;0.90;99.90;;;;;;6160935;23;19998;-69
2022/12/19 05:58:47;;;;;;;31.95;10.57;;;0.80;99.90;;;;;;6161802;23;20001;-69
2022/12/19 06:01:27;;;;;;;27.63;11.18;;;0.80;99.90;;;;;;6159492;23;20005;-69
2022/12/19 06:03:55;;;;;;;30.67;12.95;;;0.90;99.90;;;;;;6159546;23;20139;-69
2022/12/19 06:06:25;;;;;;;26.20;10.88;;;0.80;99.90;;;;;;6160865;23;20080;-69
2022/12/19 06:08:57;;;;;;;29.25;11.73;;;0.80;99.90;;;;;;6160245;23;20012;-69
2022/12/19 06:11:26;;;;;;;33.97;14.35;;;0.80;99.90;;;;;;6161508;23;20085;-69
2022/12/19 06:13:53;;;;;;;31.88;13.77;;;0.80;99.90;;;;;;6159484;23;20006;-69
2022/12/19 06:16:22;;;;;;;30.23;13.13;;;0.80;99.90;;;;;;6159420;23;20008;-69
2022/12/19 06:18:50;;;;;;;34.47;15.60;;;0.80;99.90;;;;;;6161123;23;20016;-69
2022/12/19 06:21:22;;;;;;;35.80;14.57;;;0.80;99.90;;;;;;6160459;23;20021;-69
2022/12/19 06:23:50;;;;;;;36.83;14.82;;;0.80;99.90;;;;;;6160778;23;20382;-69
2022/12/19 06:26:19;;;;;;;27.10;13.63;;;0.90;99.90;;;;;;6161380;23;20010;-69
2022/12/19 06:28:47;;;;;;;33.88;12.82;;;0.80;99.90;;;;;;6161457;23;20084;-69
2022/12/19 06:31:16;;;;;;;19.88;11.75;;;0.90;99.90;;;;;;6160634;23;20008;-69
2022/12/19 06:33:43;;;;;;;33.22;12.93;;;0.90;99.90;;;;;;6160579;23;20002;-69
2022/12/19 06:36:20;;;;;;;31.13;14.75;;;0.90;99.90;;;;;;6160372;23;20001;-69
2022/12/19 06:38:49;;;;;;;29.38;12.52;;;0.90;99.90;;;;;;6160850;23;20307;-69
2022/12/19 06:44:06;;;;;;;18.40;9.38;;;0.90;99.90;;;;;;6160442;23;20044;-69
2022/12/19 06:46:34;;;;;;;29.92;15.60;;;0.90;99.90;;;;;;6160166;23;20013;-69
2022/12/19 06:49:02;;;;;;;25.73;11.43;;;1.00;99.90;;;;;;6160606;23;20006;-69
2022/12/19 06:51:29;;;;;;;37.35;15.48;;;1.00;99.90;;;;;;6160415;23;20005;-69
2022/12/19 06:53:56;;;;;;;29.63;13.77;;;1.00;99.90;;;;;;6161082;23;20056;-69
2022/12/19 06:56:24;;;;;;;24.98;13.02;;;1.00;99.90;;;;;;6159057;23;20028;-69
2022/12/19 06:58:51;;;;;;;28.10;9.65;;;1.00;99.90;;;;;;6161020;23;20006;-69
2022/12/19 07:01:38;;;;;;;32.58;15.45;;;1.00;99.90;;;;;;6160309;23;20001;-71
2022/12/19 07:04:08;;;;;;;37.42;15.43;;;1.00;99.90;;;;;;6160795;23;20363;-71
2022/12/19 07:06:36;;;;;;;28.00;13.05;;;1.00;99.90;;;;;;6160514;23;20025;-70
2022/12/19 07:09:05;;;;;;;40.83;16.08;;;1.00;99.90;;;;;;6160359;23;20363;-69
2022/12/19 07:11:33;;;;;;;34.88;15.40;;;1.00;99.90;;;;;;6160423;23;20493;-69
2022/12/19 07:14:01;;;;;;;33.25;15.32;;;1.00;99.90;;;;;;6161512;23;20006;-73
2022/12/19 07:16:28;;;;;;;37.75;14.60;;;1.00;99.90;;;;;;6160241;23;19997;-76
2022/12/19 07:18:57;;;;;;;29.23;12.75;;;1.00;99.90;;;;;;6158853;23;20015;-73
2022/12/19 07:21:24;;;;;;;35.95;17.00;;;1.00;99.90;;;;;;6160260;23;20022;-73
2022/12/19 07:23:51;;;;;;;26.30;11.30;;;1.00;99.90;;;;;;6160347;23;20001;-74
2022/12/19 07:26:19;;;;;;;32.95;14.48;;;1.00;99.90;;;;;;6160839;23;20002;-73
2022/12/19 07:28:47;;;;;;;34.63;15.27;;;1.00;99.90;;;;;;6160090;23;20001;-74
2022/12/19 07:31:14;;;;;;;34.80;16.20;;;1.00;99.90;;;;;;6160756;23;20002;-74
2022/12/19 07:33:42;;;;;;;33.65;14.73;;;1.00;99.90;;;;;;6160210;23;20004;-75
2022/12/19 07:36:09;;;;;;;37.08;16.60;;;1.00;99.90;;;;;;6160120;23;20005;-77
2022/12/19 07:38:37;;;;;;;32.67;15.18;;;1.00;99.90;;;;;;6158727;23;20016;-74
2022/12/19 07:41:05;;;;;;;36.90;14.98;;;1.00;99.90;;;;;;6160076;23;20006;-76
2022/12/19 07:43:33;;;;;;;31.30;12.63;;;1.00;99.90;;;;;;6160241;23;20359;-75
2022/12/19 07:46:00;;;;;;;32.72;13.38;;;1.10;99.90;;;;;;6160317;23;20009;-75
2022/12/19 07:48:30;;;;;;;37.03;15.63;;;1.10;99.90;;;;;;6160562;23;20041;-75
2022/12/19 07:50:58;;;;;;;28.05;14.82;;;1.10;99.90;;;;;;6160018;23;20271;-75
2022/12/19 07:53:26;;;;;;;33.97;15.32;;;1.20;99.90;;;;;;6160591;23;20009;-70
2022/12/19 07:55:54;;;;;;;29.05;12.35;;;1.20;99.90;;;;;;6160119;23;20005;-69
2022/12/19 07:58:21;;;;;;;33.97;15.32;;;1.20;99.90;;;;;;6160798;23;20009;-73
2022/12/19 08:00:57;;;;;;;34.03;14.95;;;1.20;99.90;;;;;;6158576;23;20006;-68
2022/12/19 08:03:24;;;;;;;32.72;14.90;;;1.20;99.90;;;;;;6161204;23;20005;-69
2022/12/19 08:05:51;;;;;;;33.83;14.18;;;1.20;99.90;;;;;;6160511;23;20006;-69
2022/12/19 08:08:20;;;;;;;33.38;14.88;;;1.20;99.90;;;;;;6160321;23;20001;-70
2022/12/19 08:10:48;;;;;;;31.05;14.13;;;1.20;99.90;;;;;;6159976;23;20081;-69
2022/12/19 08:13:15;;;;;;;29.02;12.63;;;1.20;99.90;;;;;;6160612;23;20004;-69
2022/12/19 08:15:43;;;;;;;28.67;13.15;;;1.20;99.90;;;;;;6159811;23;20006;-69
2022/12/19 08:18:12;;;;;;;29.67;13.75;;;1.30;99.90;;;;;;6159745;23;20363;-69
2022/12/19 08:20:45;;;;;;;33.67;14.93;;;1.30;99.90;;;;;;6159586;23;20033;-69
2022/12/19 08:23:13;;;;;;;27.50;12.65;;;1.30;99.90;;;;;;6160660;23;20009;-68
2022/12/19 08:25:40;;;;;;;28.90;12.40;;;1.30;99.90;;;;;;6158424;23;20010;-69
2022/12/19 08:28:08;;;;;;;29.23;14.13;;;1.30;99.90;;;;;;6160349;23;20005;-69
2022/12/19 08:30:39;;;;;;;19.63;9.63;;;1.30;99.90;;;;;;6160411;23;20366;-69
2022/12/19 08:33:07;;;;;;;26.15;11.65;;;1.30;99.90;;;;;;6160345;23;19998;-69
2022/12/19 08:35:36;;;;;;;29.33;12.18;;;1.30;99.90;;;;;;6160366;23;20434;-68
2022/12/19 08:38:04;;;;;;;25.70;12.18;;;1.30;99.90;;;;;;6159736;23;20001;-68
2022/12/19 08:40:31;;;;;;;20.27;10.45;;;1.30;99.90;;;;;;6158351;23;20279;-68
2022/12/19 08:42:58;;;;;;;22.75;10.73;;;1.30;99.90;;;;;;6159868;23;20002;-69
2022/12/19 08:45:26;;;;;;;24.38;12.35;;;1.30;99.90;;;;;;6158393;23;20002;-69
2022/12/19 08:47:54;;;;;;;29.50;12.98;;;1.30;99.90;;;;;;6159888;23;19998;-69
2022/12/19 08:50:21;;;;;;;23.63;10.32;;;1.30;99.90;;;;;;6159516;23;20001;-69
2022/12/19 08:52:49;;;;;;;19.60;10.57;;;1.40;99.90;;;;;;6160466;23;20002;-69
2022/12/19 08:55:17;;;;;;;24.80;11.52;;;1.40;99.90;;;;;;6159684;23;19997;-73
2022/12/19 08:57:44;;;;;;;22.98;11.35;;;1.40;99.90;;;;;;6158248;23;20270;-70
2022/12/19 09:00:12;;;;;;;19.27;9.45;;;1.40;99.90;;;;;;6158309;23;20011;-69
2022/12/19 09:02:40;;;;;;;22.27;10.85;;;1.40;99.90;;;;;;6159715;23;20001;-70
2022/12/19 09:05:09;;;;;;;26.88;11.45;;;1.40;99.90;;;;;;6159516;23;19998;-69
2022/12/19 09:07:36;;;;;;;29.02;12.02;;;1.50;99.90;;;;;;6159598;23;20052;-69
2022/12/19 09:10:05;;;;;;;27.35;11.93;;;1.50;99.90;;;;;;6162248;23;20098;-70
2022/12/19 09:12:32;;;;;;;22.45;11.48;;;1.50;99.90;;;;;;6161591;23;19997;-69
2022/12/19 09:15:00;;;;;;;27.05;12.35;;;1.50;99.90;;;;;;6162071;23;20009;-69
2022/12/19 09:17:29;;;;;;;25.77;11.80;;;1.50;99.90;;;;;;6161269;23;20008;-69
2022/12/19 09:19:56;;;;;;;25.30;11.57;;;1.50;99.90;;;;;;6161097;23;20025;-69
2022/12/19 09:22:23;;;;;;;24.50;12.55;;;1.60;99.90;;;;;;6159897;23;20050;-71
2022/12/19 09:24:51;;;;;;;22.75;12.07;;;1.60;99.90;;;;;;6159905;23;20341;-68
2022/12/19 09:27:18;;;;;;;25.52;12.52;;;1.60;99.90;;;;;;6161233;23;20005;-68
2022/12/19 09:29:46;;;;;;;28.50;12.05;;;1.70;99.90;;;;;;6161887;23;20009;-69
2022/12/19 09:32:14;;;;;;;21.25;11.20;;;1.70;99.90;;;;;;6161111;23;19997;-69
2022/12/19 09:34:41;;;;;;;27.33;12.40;;;1.70;99.90;;;;;;6161182;23;20405;-68
2022/12/19 09:37:11;;;;;;;25.80;11.90;;;1.70;99.90;;;;;;6161189;23;20008;-69
2022/12/19 09:39:38;;;;;;;25.10;12.07;;;1.80;99.90;;;;;;6159757;23;20009;-69
2022/12/19 09:42:19;;;;;;;28.88;13.70;;;1.80;99.90;;;;;;6159908;23;20006;-69
2022/12/19 09:45:01;;;;;;;31.38;13.73;;;1.80;99.90;;;;;;6161776;23;20008;-69
2022/12/19 09:47:33;;;;;;;27.95;13.18;;;1.90;99.90;;;;;;6161735;23;20001;-69
2022/12/19 09:50:01;;;;;;;28.08;11.98;;;1.90;99.90;;;;;;6161594;23;20033;-69
2022/12/19 09:52:29;;;;;;;19.23;9.45;;;2.00;99.90;;;;;;6161888;23;20077;-69
2022/12/19 09:55:12;;;;;;;28.75;14.23;;;2.00;99.90;;;;;;6160977;23;20002;-69
2022/12/19 09:58:07;;;;;;;23.00;11.75;;;2.00;99.90;;;;;;6161033;23;20002;-75
2022/12/19 10:00:52;;;;;;;23.15;11.32;;;2.00;99.90;;;;;;6160988;23;20005;-69
2022/12/19 10:03:40;;;;;;;27.83;11.57;;;2.10;99.90;;;;;;6161090;23;20037;-68
2022/12/19 10:06:21;;;;;;;22.75;11.18;;;2.10;99.90;;;;;;6160693;23;20248;-69
2022/12/19 10:08:49;;;;;;;25.27;10.85;;;2.20;99.90;;;;;;6160837;23;20006;-69
2022/12/19 10:11:17;;;;;;;21.80;11.02;;;2.20;99.90;;;;;;6160802;23;20029;-70
2022/12/19 10:14:26;;;;;;;23.65;11.88;;;2.30;99.90;;;;;;6161689;23;20003;-69
2022/12/19 10:17:22;;;;;;;22.98;11.18;;;2.30;99.90;;;;;;6135613;23;20052;-70
2022/12/19 10:20:14;;;;;;;23.70;11.18;;;2.40;99.90;;;;;;6160616;23;20025;-70
2022/12/19 10:22:59;;;;;;;22.85;11.35;;;2.50;99.90;;;;;;6161286;23;20258;-69
2022/12/19 10:25:52;;;;;;;22.20;11.63;;;2.50;99.90;;;;;;6161367;23;20002;-69
2022/12/19 10:28:31;;;;;;;22.60;10.02;;;2.60;99.90;;;;;;6161259;23;20016;-69
2022/12/19 10:30:59;;;;;;;25.05;11.65;;;2.60;99.90;;;;;;6161346;23;20024;-69
2022/12/19 10:33:43;;;;;;;18.10;8.98;;;2.70;99.90;;;;;;6159130;23;20283;-69
2022/12/19 10:36:11;;;;;;;20.35;10.77;;;2.70;99.90;;;;;;6161296;23;19998;-69
2022/12/19 10:39:03;;;;;;;23.90;11.95;;;2.80;99.90;;;;;;6160968;23;20071;-69
2022/12/19 10:41:32;;;;;;;24.20;11.70;;;2.80;99.90;;;;;;6159214;23;20006;-76
2022/12/19 10:44:06;;;;;;;26.55;12.82;;;2.80;99.90;;;;;;6161227;23;19997;-70
2022/12/19 10:46:51;;;;;;;23.38;11.43;;;2.80;99.90;;;;;;6161202;23;20428;-70
2022/12/19 10:49:26;;;;;;;25.25;11.25;;;2.80;99.90;;;;;;6160911;23;20001;-70
2022/12/19 10:51:58;;;;;;;22.88;11.32;;;2.80;99.90;;;;;;6160836;23;20006;-71
2022/12/19 10:54:47;;;;;;;30.95;13.00;;;2.80;99.90;;;;;;6160513;23;19997;-71
2022/12/19 10:57:31;;;;;;;21.70;10.77;;;2.90;99.90;;;;;;6159594;23;20001;-71
2022/12/19 11:00:05;;;;;;;32.45;13.77;;;2.90;99.90;;;;;;6160488;23;20013;-71
2022/12/19 11:02:41;;;;;;;24.70;13.35;;;2.90;99.90;;;;;;6160340;23;20279;-71
2022/12/19 11:05:28;;;;;;;24.40;12.15;;;2.90;99.90;;;;;;6160381;23;20001;-75
2022/12/19 11:08:05;;;;;;;28.80;13.07;;;2.90;99.90;;;;;;6160810;23;20005;-69
2022/12/19 11:10:40;;;;;;;29.90;15.23;;;2.90;99.90;;;;;;6160323;23;20005;-70
2022/12/19 11:13:23;;;;;;;27.90;14.70;;;2.90;99.90;;;;;;6160881;23;20024;-70
2022/12/19 11:15:56;;;;;;;26.48;11.68;;;3.00;99.90;;;;;;6160231;23;20389;-70
2022/12/19 11:18:24;;;;;;;32.03;16.17;;;3.00;99.90;;;;;;6158929;23;20252;-72
2022/12/19 11:21:28;;;;;;;23.52;11.40;;;3.10;99.90;;;;;;6160162;23;20022;-69
2022/12/19 11:24:03;;;;;;;23.23;11.10;;;3.10;99.90;;;;;;6160869;23;20081;-69
2022/12/19 11:26:43;;;;;;;31.40;14.63;;;3.20;99.90;;;;;;6159852;23;20390;-69
2022/12/19 11:29:29;;;;;;;26.65;13.35;;;3.20;99.90;;;;;;6160834;23;20359;-69
2022/12/19 11:32:00;;;;;;;27.88;13.30;;;3.20;99.90;;;;;;6160902;23;20060;-71
2022/12/19 11:34:30;;;;;;;28.80;13.55;;;3.30;99.90;;;;;;6160019;23;20002;-69
2022/12/19 11:37:20;;;;;;;31.05;14.50;;;3.30;99.90;;;;;;6158837;23;20001;-69
2022/12/19 11:40:11;;;;;;;26.70;13.55;;;3.30;99.90;;;;;;6160705;23;20287;-69
2022/12/19 11:42:59;;;;;;;27.23;13.05;;;3.30;99.90;;;;;;6160091;23;20005;-69
2022/12/19 11:45:49;;;;;;;33.33;14.30;;;3.30;99.90;;;;;;6159975;23;20001;-68
2022/12/19 11:49:08;;;;;;;28.33;14.65;;;3.40;99.90;;;;;;6160485;23;20002;-69
2022/12/19 11:52:21;;;;;;;29.77;13.20;;;3.40;99.90;;;;;;6111632;23;20053;-71
2022/12/19 11:54:55;;;;;;;29.60;14.38;;;3.40;99.90;;;;;;6159817;23;20009;-71
2022/12/19 11:57:24;;;;;;;25.52;14.20;;;3.50;99.90;;;;;;6158385;23;20076;-70
2022/12/19 11:59:53;;;;;;;28.20;13.23;;;3.50;99.90;;;;;;6159690;23;20028;-72
2022/12/19 12:02:27;;;;;;;29.00;13.88;;;3.50;99.90;;;;;;6160107;23;20032;-73
2022/12/19 12:05:22;;;;;;;35.75;14.38;;;3.50;99.90;;;;;;6160363;23;20008;-72
2022/12/19 12:08:31;;;;;;;31.83;14.23;;;3.50;99.90;;;;;;6160365;23;20080;-72
2022/12/19 12:11:22;;;;;;;29.80;14.48;;;3.50;99.90;;;;;;6095467;23;20006;-71
2022/12/19 12:14:14;;;;;;;30.90;14.13;;;3.50;99.90;;;;;;6160510;23;20005;-72
2022/12/19 12:17:00;;;;;;;30.25;13.50;;;3.50;99.90;;;;;;6159652;23;20012;-71
2022/12/19 12:19:44;;;;;;;31.65;15.07;;;3.60;99.90;;;;;;6159364;23;20017;-72
2022/12/19 12:22:18;;;;;;;24.70;12.43;;;3.60;99.90;;;;;;6160618;23;20005;-72
2022/12/19 12:24:45;;;;;;;27.98;14.13;;;3.60;99.90;;;;;;6160305;23;20012;-71
2022/12/19 12:27:19;;;;;;;26.10;12.90;;;3.60;99.90;;;;;;6160473;23;20001;-72
2022/12/19 12:30:03;;;;;;;30.58;13.73;;;3.70;99.90;;;;;;6160342;23;20351;-73
2022/12/19 12:32:45;;;;;;;30.65;14.20;;;3.60;99.90;;;;;;6160498;23;19997;-72
2022/12/19 12:35:35;;;;;;;27.27;14.13;;;3.60;99.90;;;;;;6159791;23;19997;-70
2022/12/19 12:38:05;;;;;;;31.15;14.27;;;3.70;99.90;;;;;;6159895;23;20005;-70
2022/12/19 12:40:47;;;;;;;33.58;14.73;;;3.70;99.90;;;;;;6158430;23;20005;-70
2022/12/19 12:43:29;;;;;;;27.42;13.13;;;3.70;99.90;;;;;;6159076;23;20001;-70
2022/12/19 12:45:56;;;;;;;30.35;15.23;;;3.60;99.90;;;;;;6161637;23;20081;-70
2022/12/19 12:48:40;;;;;;;27.70;13.18;;;3.60;99.90;;;;;;6161751;23;20029;-70
2022/12/19 12:51:10;;;;;;;36.53;15.77;;;3.60;99.90;;;;;;6162211;23;20024;-69
2022/12/19 12:53:42;;;;;;;30.35;15.02;;;3.60;99.90;;;;;;6161725;23;19997;-70
2022/12/19 12:56:12;;;;;;;32.05;15.40;;;3.50;99.90;;;;;;6162203;23;20041;-69
2022/12/19 12:58:56;;;;;;;31.88;14.48;;;3.50;99.90;;;;;;6161958;23;20438;-69
2022/12/19 13:01:40;;;;;;;32.03;14.60;;;3.50;99.90;;;;;;6160101;23;20009;-69
2022/12/19 13:04:31;;;;;;;30.95;14.15;;;3.40;99.90;;;;;;6162234;23;20008;-69
2022/12/19 13:07:15;;;;;;;28.02;14.00;;;3.40;99.90;;;;;;6161496;23;20013;-70
2022/12/19 13:09:44;;;;;;;28.55;14.18;;;3.30;99.90;;;;;;6161283;23;20101;-70
2022/12/19 13:15:26;;;;;;;29.35;14.73;;;3.30;99.90;;;;;;6161278;23;20005;-70
2022/12/19 13:17:54;;;;;;;32.60;14.40;;;3.20;99.90;;;;;;6161496;23;20305;-77